Time;durP1;ratioP1;P1;durP2;ratioP2;P2;SDS_P1;SDS_P2;PMS_P1;PMS_P2;Temp;Humidity;BMP_temperature;BMP_pressure;BME280_temperature;BME280_humidity;BME280_pressure;Samples;Min_cycle;Max_cycle;Signal;HPM_P1;HPM_P2
2022/12/19 00:01:21;;;;;;;13.20;6.90;;;-9.10;99.90;;;;;;4944252;28;20203;-84
2022/12/19 00:04:08;;;;;;;9.73;5.93;;;-9.10;99.90;;;;;;4960074;28;20216;-83
2022/12/19 00:06:36;;;;;;;3.60;3.43;;;-9.20;99.90;;;;;;4977693;28;20183;-84
2022/12/19 00:09:03;;;;;;;11.17;3.87;;;-9.30;99.90;;;;;;4960129;28;20185;-84
2022/12/19 00:11:29;;;;;;;6.20;5.80;;;-9.40;99.90;;;;;;4977218;28;20217;-84
2022/12/19 00:13:54;;;;;;;4.47;4.10;;;-9.40;99.90;;;;;;4960028;28;20210;-84
2022/12/19 00:16:25;;;;;;;12.57;7.10;;;-9.50;99.90;;;;;;4959920;28;20745;-85
2022/12/19 00:18:53;;;;;;;6.83;6.33;;;-9.50;99.90;;;;;;4943856;28;20192;-84
2022/12/19 00:21:21;;;;;;;25.23;6.67;;;-9.50;99.90;;;;;;4958421;28;20652;-85
2022/12/19 00:23:47;;;;;;;7.07;6.37;;;-9.60;99.90;;;;;;4957639;29;20310;-85
2022/12/19 00:26:15;;;;;;;7.57;4.77;;;-9.60;99.90;;;;;;4957582;29;20186;-85
2022/12/19 00:28:46;;;;;;;8.13;4.17;;;-9.70;99.90;;;;;;4957848;29;20177;-84
2022/12/19 00:31:13;;;;;;;7.27;5.17;;;-9.80;99.90;;;;;;4940280;29;20176;-85
2022/12/19 00:33:39;;;;;;;5.80;5.40;;;-9.70;99.90;;;;;;4957560;29;20695;-85
2022/12/19 00:36:07;;;;;;;9.53;5.40;;;-9.70;99.90;;;;;;4939251;29;20188;-85
2022/12/19 00:38:33;;;;;;;15.10;5.83;;;-9.60;99.90;;;;;;4957388;29;20180;-84
2022/12/19 00:41:16;;;;;;;6.03;5.60;;;-9.50;99.90;;;;;;4957714;29;20267;-84
2022/12/19 00:43:43;;;;;;;13.97;8.27;;;-9.40;99.90;;;;;;4957547;29;20768;-85
2022/12/19 00:46:13;;;;;;;4.93;4.57;;;-8.20;99.90;;;;;;4939946;29;20193;-84
2022/12/19 00:48:41;;;;;;;7.07;4.13;;;-9.30;99.90;;;;;;4957512;29;20185;-85
2022/12/19 00:51:11;;;;;;;31.87;5.23;;;-9.20;99.90;;;;;;4957374;29;20790;-85
2022/12/19 00:53:37;;;;;;;6.37;4.03;;;-9.20;99.90;;;;;;4940009;29;20228;-85
2022/12/19 00:56:06;;;;;;;6.00;3.83;;;-9.30;99.90;;;;;;4957325;29;20184;-85
2022/12/19 00:58:32;;;;;;;2.87;2.77;;;-9.10;99.90;;;;;;4957139;29;20180;-84
2022/12/19 01:01:03;;;;;;;4.63;4.23;;;-9.20;99.90;;;;;;4957105;29;20642;-84
2022/12/19 01:03:29;;;;;;;5.37;3.50;;;;;;;;;;4957118;29;20298;-84
2022/12/19 01:05:55;;;;;;;5.77;4.73;;;-9.00;99.90;;;;;;4940477;29;20192;-84
2022/12/19 01:08:21;;;;;;;10.13;6.20;;;-9.00;99.90;;;;;;4956968;29;20182;-85
2022/12/19 01:10:48;;;;;;;14.07;4.87;;;-8.90;99.90;;;;;;4924215;29;20194;-84
2022/12/19 01:13:16;;;;;;;5.60;5.10;;;-8.90;99.90;;;;;;4939468;29;20224;-85
2022/12/19 01:15:41;;;;;;;4.50;3.80;;;-8.80;99.90;;;;;;4957273;29;20176;-85
2022/12/19 01:18:09;;;;;;;7.13;6.20;;;-8.70;99.90;;;;;;4924044;29;20193;-85
2022/12/19 01:20:38;;;;;;;9.83;4.57;;;-8.60;99.90;;;;;;4956973;29;20178;-85
2022/12/19 01:23:05;;;;;;;11.90;6.43;;;-8.60;99.90;;;;;;4956858;29;20247;-84
2022/12/19 01:25:33;;;;;;;9.87;7.07;;;-8.60;99.90;;;;;;4939673;29;20192;-84
2022/12/19 01:27:59;;;;;;;9.63;6.73;;;-8.40;99.90;;;;;;4939403;29;20539;-84
2022/12/19 01:30:25;;;;;;;6.33;5.90;;;-8.40;99.90;;;;;;4939538;29;20182;-84
2022/12/19 01:32:51;;;;;;;4.97;4.33;;;-8.40;99.90;;;;;;4939440;29;20645;-84
2022/12/19 01:35:16;;;;;;;8.87;4.67;;;-8.30;99.90;;;;;;4923454;29;20217;-85
2022/12/19 01:37:42;;;;;;;5.47;4.93;;;-8.20;99.90;;;;;;4923757;29;20742;-86
2022/12/19 01:40:10;;;;;;;4.60;4.27;;;-8.20;99.90;;;;;;4923818;29;20548;-85
2022/12/19 01:42:36;;;;;;;4.00;3.63;;;-8.20;99.90;;;;;;4923808;29;20261;-84
2022/12/19 01:45:08;;;;;;;6.67;3.60;;;-8.20;99.90;;;;;;4957912;28;20231;-84
2022/12/19 01:47:43;;;;;;;16.83;5.67;;;-8.20;99.90;;;;;;4963833;29;20168;-85
2022/12/19 01:50:16;;;;;;;10.23;5.07;;;-8.20;99.90;;;;;;4964034;29;20177;-88
2022/12/19 01:52:42;;;;;;;6.07;5.43;;;-8.20;99.90;;;;;;4966447;29;20191;-84
2022/12/19 01:55:08;;;;;;;3.43;3.17;;;-8.10;99.90;;;;;;4940341;29;20187;-84
2022/12/19 01:57:34;;;;;;;4.53;4.13;;;-7.00;99.90;;;;;;4957161;29;20213;-84
2022/12/19 02:00:02;;;;;;;8.03;4.67;;;-8.00;99.90;;;;;;4943626;29;20185;-84
2022/12/19 02:02:30;;;;;;;6.07;4.97;;;-7.90;99.90;;;;;;4932477;29;20217;-84
2022/12/19 02:04:55;;;;;;;3.27;3.03;;;-7.90;99.90;;;;;;4968062;29;20180;-84
2022/12/19 02:07:23;;;;;;;8.43;4.60;;;-7.70;99.90;;;;;;4951346;29;20217;-84
2022/12/19 02:09:54;;;;;;;2.67;2.57;;;-7.70;99.90;;;;;;4970372;29;20196;-84
2022/12/19 02:12:20;;;;;;;3.70;3.40;;;-7.60;99.90;;;;;;4953399;29;20256;-84
2022/12/19 02:14:46;;;;;;;3.87;3.57;;;-7.70;99.90;;;;;;4942222;29;20332;-84
2022/12/19 02:17:18;;;;;;;2.53;2.43;;;-7.70;99.90;;;;;;4939109;29;20191;-85
2022/12/19 02:20:21;;;;;;;2.93;2.73;;;-7.60;99.90;;;;;;4939555;29;20184;-84
2022/12/19 02:23:04;;;;;;;4.43;4.03;;;-7.60;99.90;;;;;;4939569;29;20221;-84
2022/12/19 02:25:52;;;;;;;3.33;3.13;;;-7.60;99.90;;;;;;4939326;29;20191;-84
2022/12/19 02:28:26;;;;;;;4.73;4.30;;;-7.60;99.90;;;;;;4939914;29;20272;-85
2022/12/19 02:30:54;;;;;;;2.43;2.33;;;-7.50;99.90;;;;;;4956629;29;20184;-84
2022/12/19 02:33:30;;;;;;;4.00;3.73;;;-7.50;99.90;;;;;;4955713;29;20188;-84
2022/12/19 02:36:05;;;;;;;15.83;2.90;;;-7.60;99.90;;;;;;4955668;29;20206;-84
2022/12/19 02:38:34;;;;;;;4.57;4.20;;;-7.60;99.90;;;;;;4955259;29;20188;-84
2022/12/19 02:41:09;;;;;;;3.63;3.40;;;-7.50;99.90;;;;;;4955316;29;20225;-84
2022/12/19 02:43:40;;;;;;;23.83;4.00;;;-7.50;99.90;;;;;;4955361;29;20253;-84
2022/12/19 02:46:08;;;;;;;2.37;2.27;;;-7.60;99.90;;;;;;4938423;29;20269;-83
2022/12/19 02:48:34;;;;;;;3.13;2.93;;;-7.60;99.90;;;;;;4955199;29;20263;-83
2022/12/19 02:51:00;;;;;;;2.60;2.50;;;-7.80;99.90;;;;;;4955367;29;20188;-84
2022/12/19 02:53:25;;;;;;;3.00;2.40;;;-7.70;99.90;;;;;;4937884;29;20217;-83
2022/12/19 02:56:13;;;;;;;3.00;2.30;;;-7.70;99.90;;;;;;4938440;29;20536;-84
2022/12/19 02:59:19;;;;;;;2.37;2.17;;;-7.70;99.90;;;;;;4938013;28;20270;-83
2022/12/19 03:01:51;;;;;;;2.97;2.87;;;-7.60;99.90;;;;;;4933866;29;20653;-84
2022/12/19 03:04:43;;;;;;;1.87;1.77;;;-7.70;99.90;;;;;;4955151;29;20727;-88
2022/12/19 03:07:35;;;;;;;1.80;1.70;;;-7.60;99.90;;;;;;4938021;29;20191;-84
2022/12/19 03:10:06;;;;;;;4.23;3.93;;;-7.60;99.90;;;;;;4954801;29;20192;-85
2022/12/19 03:12:38;;;;;;;2.47;2.37;;;-7.70;99.90;;;;;;4954861;29;20194;-85
2022/12/19 03:15:05;;;;;;;2.63;2.20;;;-7.70;99.90;;;;;;4955338;29;20176;-85
2022/12/19 03:17:36;;;;;;;2.70;2.57;;;-7.80;99.90;;;;;;4937682;29;20191;-84
2022/12/19 03:20:13;;;;;;;2.43;2.33;;;-7.80;99.90;;;;;;4955332;29;20188;-85
2022/12/19 03:22:39;;;;;;;2.77;2.67;;;-7.80;99.90;;;;;;4937579;29;20784;-84
2022/12/19 03:25:05;;;;;;;7.07;4.20;;;-7.90;99.90;;;;;;4922205;29;20183;-84
2022/12/19 03:27:34;;;;;;;4.13;3.50;;;-7.90;99.90;;;;;;4937831;29;20181;-84
2022/12/19 03:30:09;;;;;;;3.93;3.73;;;-8.00;99.90;;;;;;4954976;29;20216;-84
2022/12/19 03:32:37;;;;;;;3.27;3.13;;;-8.00;99.90;;;;;;4937620;29;20186;-84
2022/12/19 03:35:14;;;;;;;2.93;2.80;;;-8.30;99.90;;;;;;4954868;29;20180;-84
2022/12/19 03:37:42;;;;;;;5.33;4.90;;;-8.20;99.90;;;;;;4964823;28;20217;-84
2022/12/19 03:40:17;;;;;;;7.10;4.33;;;-8.20;99.90;;;;;;4986693;28;20658;-84
2022/12/19 03:45:56;;;;;;;5.00;4.53;;;-8.50;99.90;;;;;;4981383;28;20209;-84
2022/12/19 03:48:39;;;;;;;2.63;2.53;;;-8.50;99.90;;;;;;4956959;28;20282;-84
2022/12/19 03:51:31;;;;;;;3.23;3.03;;;-8.60;99.90;;;;;;4956692;28;20181;-84
2022/12/19 03:54:01;;;;;;;4.00;3.60;;;-8.60;99.90;;;;;;4974466;28;20197;-84
2022/12/19 03:56:47;;;;;;;3.80;3.50;;;-8.70;99.90;;;;;;4993449;28;20217;-85
2022/12/19 03:59:32;;;;;;;4.07;3.70;;;-8.80;99.90;;;;;;4993518;28;20237;-84
2022/12/19 04:01:58;;;;;;;3.40;3.23;;;-8.90;99.90;;;;;;4993564;28;20178;-84
2022/12/19 04:04:26;;;;;;;6.87;4.17;;;-9.00;99.90;;;;;;4993457;28;20190;-84
2022/12/19 04:06:54;;;;;;;4.23;3.17;;;-9.10;99.90;;;;;;4975998;28;20183;-84
2022/12/19 04:09:22;;;;;;;5.03;4.63;;;-9.20;99.90;;;;;;4993491;28;20202;-83
2022/12/19 04:11:52;;;;;;;5.53;5.03;;;-9.20;99.90;;;;;;4978084;28;20182;-83
2022/12/19 04:14:27;;;;;;;4.87;3.60;;;-9.20;99.90;;;;;;4979614;28;20182;-83
2022/12/19 04:17:04;;;;;;;5.70;4.53;;;-9.30;99.90;;;;;;4996855;28;20623;-84
2022/12/19 04:19:39;;;;;;;11.83;7.17;;;-9.30;99.90;;;;;;4989140;28;20187;-85
2022/12/19 04:22:15;;;;;;;3.87;3.57;;;-6.80;99.90;;;;;;4960097;28;20213;-84
2022/12/19 04:24:44;;;;;;;5.40;5.00;;;-9.40;99.90;;;;;;4959552;28;20180;-84
2022/12/19 04:27:12;;;;;;;5.53;4.83;;;-9.40;99.90;;;;;;4977147;28;20180;-84
2022/12/19 04:29:38;;;;;;;6.63;5.47;;;-9.50;99.90;;;;;;4959978;28;20265;-84
2022/12/19 04:32:05;;;;;;;6.63;5.40;;;-9.50;99.90;;;;;;4977183;28;20187;-84
2022/12/19 04:34:31;;;;;;;4.03;3.77;;;-9.50;99.90;;;;;;4964381;28;20547;-84
2022/12/19 04:36:57;;;;;;;10.63;6.80;;;-9.50;99.90;;;;;;4981266;28;20705;-85
2022/12/19 04:39:23;;;;;;;6.00;5.53;;;-9.70;99.90;;;;;;4958365;28;20634;-85
2022/12/19 04:41:49;;;;;;;11.17;7.30;;;-9.70;99.90;;;;;;4933741;28;20250;-85
2022/12/19 04:44:14;;;;;;;14.60;9.87;;;-9.80;99.90;;;;;;4957605;28;20242;-83
2022/12/19 04:46:40;;;;;;;15.53;8.37;;;-9.90;99.90;;;;;;4975293;28;20542;-84
2022/12/19 04:49:05;;;;;;;23.20;9.43;;;-9.90;99.90;;;;;;4955520;28;20707;-86
2022/12/19 04:51:31;;;;;;;13.20;7.80;;;-9.90;99.90;;;;;;4941818;28;20187;-87
2022/12/19 04:53:57;;;;;;;25.67;11.80;;;-10.00;99.90;;;;;;4957070;28;20203;-85
2022/12/19 04:56:23;;;;;;;9.80;6.50;;;-10.00;99.90;;;;;;4941577;28;20188;-85
2022/12/19 04:58:48;;;;;;;12.63;9.73;;;-10.10;99.90;;;;;;4941950;28;20211;-85
2022/12/19 05:01:14;;;;;;;11.67;8.93;;;-9.20;99.90;;;;;;4925742;28;20550;-86
2022/12/19 05:03:40;;;;;;;7.13;6.53;;;-10.20;99.90;;;;;;4941652;28;20228;-86
2022/12/19 05:06:11;;;;;;;27.73;15.57;;;-8.00;99.90;;;;;;4975341;28;20238;-85
2022/12/19 05:08:38;;;;;;;21.60;10.57;;;-10.30;99.90;;;;;;4958551;28;20190;-86
2022/12/19 05:11:05;;;;;;;12.13;10.77;;;-10.30;99.90;;;;;;4975599;28;20178;-85
2022/12/19 05:13:31;;;;;;;15.53;8.67;;;-8.30;99.90;;;;;;4976018;28;20190;-85
2022/12/19 05:16:01;;;;;;;6.63;6.10;;;-10.40;99.90;;;;;;4958666;28;20568;-86
2022/12/19 05:18:27;;;;;;;20.37;10.37;;;-10.50;99.90;;;;;;4948570;28;20194;-86
2022/12/19 05:20:53;;;;;;;15.43;8.30;;;-10.50;99.90;;;;;;4958515;28;20298;-85
2022/12/19 05:23:19;;;;;;;12.50;8.10;;;-10.50;99.90;;;;;;4974650;28;20226;-85
2022/12/19 05:25:45;;;;;;;12.87;8.07;;;-10.60;99.90;;;;;;4957043;28;20190;-85
2022/12/19 05:28:12;;;;;;;15.00;8.03;;;-10.80;99.90;;;;;;4974633;28;20183;-85
2022/12/19 05:30:38;;;;;;;6.83;6.27;;;-10.70;99.90;;;;;;4948513;29;20221;-85
2022/12/19 05:33:04;;;;;;;14.03;9.37;;;-10.70;99.90;;;;;;4940604;28;20646;-86
2022/12/19 05:35:29;;;;;;;22.17;11.80;;;-10.70;99.90;;;;;;4960639;28;20281;-86
2022/12/19 05:37:55;;;;;;;16.10;12.00;;;-10.80;99.90;;;;;;4949669;28;20696;-85
2022/12/19 05:40:20;;;;;;;9.63;8.70;;;-10.80;99.90;;;;;;4935706;29;20636;-85
2022/12/19 05:42:46;;;;;;;21.40;8.40;;;-10.80;99.90;;;;;;4955553;28;20273;-85
2022/12/19 05:45:12;;;;;;;16.93;9.20;;;-10.80;99.90;;;;;;4930492;28;20230;-85
2022/12/19 05:47:37;;;;;;;22.47;10.57;;;-10.90;99.90;;;;;;4931733;28;20312;-85
2022/12/19 05:50:04;;;;;;;12.80;7.70;;;-8.70;99.90;;;;;;4957459;28;20213;-85
2022/12/19 05:52:30;;;;;;;15.70;12.00;;;-10.80;99.90;;;;;;4954106;28;20234;-85
2022/12/19 05:54:56;;;;;;;8.73;7.93;;;-10.90;99.90;;;;;;4973861;28;20226;-85
2022/12/19 05:57:21;;;;;;;16.23;10.13;;;-10.90;99.90;;;;;;4933701;28;20209;-84
2022/12/19 05:59:47;;;;;;;7.83;5.20;;;-11.00;99.90;;;;;;4944327;28;20237;-86
2022/12/19 06:02:13;;;;;;;12.23;7.50;;;-11.00;99.90;;;;;;4942120;28;20701;-86
2022/12/19 06:04:38;;;;;;;5.20;4.87;;;-11.10;99.90;;;;;;4957906;28;20253;-87
2022/12/19 06:07:04;;;;;;;7.53;6.87;;;-11.10;99.90;;;;;;4941919;28;20188;-85
2022/12/19 06:09:30;;;;;;;10.50;7.20;;;-11.40;99.90;;;;;;4941713;28;20695;-86
2022/12/19 06:11:55;;;;;;;8.70;6.63;;;-11.10;99.90;;;;;;4942295;28;20675;-86
2022/12/19 06:14:21;;;;;;;11.93;8.47;;;-11.20;99.90;;;;;;4958432;28;20209;-86
2022/12/19 06:16:47;;;;;;;15.33;6.47;;;;;;;;;;4923914;28;20908;-88
2022/12/19 06:19:13;;;;;;;12.07;8.00;;;-11.20;99.90;;;;;;4956215;29;20230;-87
2022/12/19 06:21:39;;;;;;;5.03;4.73;;;-9.20;99.90;;;;;;4938612;29;20223;-88
2022/12/19 06:24:05;;;;;;;12.53;9.67;;;-11.30;99.90;;;;;;4922759;29;20767;-87
2022/12/19 06:26:30;;;;;;;8.90;8.00;;;-11.20;99.90;;;;;;4923041;29;20334;-88
2022/12/19 06:28:56;;;;;;;11.97;8.63;;;-11.20;99.90;;;;;;4939091;29;20267;-84
2022/12/19 06:31:23;;;;;;;20.30;8.87;;;-11.30;99.90;;;;;;4949572;28;20265;-87
2022/12/19 06:33:49;;;;;;;10.33;9.43;;;-11.40;99.90;;;;;;4985206;28;20269;-86
2022/12/19 06:36:16;;;;;;;20.33;14.13;;;-11.40;99.90;;;;;;4976672;28;20205;-85
2022/12/19 06:38:41;;;;;;;8.53;7.90;;;-11.30;99.90;;;;;;4994253;28;20177;-86
2022/12/19 06:43:57;;;;;;;5.90;5.40;;;-11.40;99.90;;;;;;4974087;28;20268;-87
2022/12/19 06:46:22;;;;;;;7.80;7.13;;;-11.60;99.90;;;;;;4958676;28;20281;-85
2022/12/19 06:48:48;;;;;;;8.23;7.53;;;-11.50;99.90;;;;;;4956637;28;20707;-85
2022/12/19 06:51:14;;;;;;;7.10;5.23;;;-11.90;99.90;;;;;;4974425;28;20199;-86
2022/12/19 06:53:40;;;;;;;8.67;7.87;;;-11.90;99.90;;;;;;4977680;28;20297;-88
2022/12/19 06:56:06;;;;;;;11.13;8.90;;;-11.80;99.90;;;;;;4937825;29;20285;-87
2022/12/19 06:58:33;;;;;;;10.27;8.20;;;-11.70;99.90;;;;;;4948861;28;20190;-88
2022/12/19 07:00:58;;;;;;;12.43;7.57;;;-11.80;99.90;;;;;;4940074;28;20193;-87
2022/12/19 07:03:29;;;;;;;14.00;7.33;;;-11.80;99.90;;;;;;4972419;28;20203;-86
2022/12/19 07:05:55;;;;;;;5.57;5.07;;;-11.80;99.90;;;;;;4955735;28;20269;-87
2022/12/19 07:08:20;;;;;;;8.50;7.70;;;-11.80;99.90;;;;;;4947364;28;20622;-86
2022/12/19 07:10:46;;;;;;;8.87;7.87;;;-11.60;99.90;;;;;;4955630;28;20229;-87
2022/12/19 07:13:12;;;;;;;8.50;7.50;;;-11.60;99.90;;;;;;4955279;28;20226;-87
2022/12/19 07:15:38;;;;;;;8.00;7.03;;;-11.70;99.90;;;;;;4973332;28;20709;-87
2022/12/19 07:18:06;;;;;;;9.53;8.17;;;-11.50;99.90;;;;;;4940564;28;20989;-89
2022/12/19 07:20:35;;;;;;;7.07;6.37;;;-11.50;99.90;;;;;;4972548;28;20190;-88
2022/12/19 07:23:01;;;;;;;5.00;4.70;;;-11.20;99.90;;;;;;4953498;28;20206;-88
2022/12/19 07:25:27;;;;;;;8.23;6.10;;;-11.20;99.90;;;;;;4955990;28;20187;-89
2022/12/19 07:27:53;;;;;;;8.53;7.90;;;-11.00;99.90;;;;;;4938313;28;20191;-87
2022/12/19 07:30:18;;;;;;;10.43;7.90;;;-10.90;99.90;;;;;;4957411;28;20191;-87
2022/12/19 07:32:44;;;;;;;15.33;7.37;;;-10.80;99.90;;;;;;4955803;28;20191;-85
2022/12/19 07:35:10;;;;;;;6.60;6.00;;;-10.80;99.90;;;;;;4972568;28;20277;-85
2022/12/19 07:37:35;;;;;;;6.23;5.73;;;-10.70;99.90;;;;;;4957705;28;20278;-88
2022/12/19 07:40:01;;;;;;;16.70;8.87;;;-10.80;99.90;;;;;;4925380;28;20186;-85
2022/12/19 07:42:27;;;;;;;9.50;8.43;;;-10.60;99.90;;;;;;4956532;28;20211;-84
2022/12/19 07:44:53;;;;;;;12.20;8.80;;;-10.60;99.90;;;;;;4938722;28;20257;-85
2022/12/19 07:47:18;;;;;;;17.83;12.20;;;-10.40;99.90;;;;;;4970841;28;20186;-85
2022/12/19 07:49:45;;;;;;;33.30;17.60;;;-10.40;99.90;;;;;;4977170;28;20273;-84
2022/12/19 07:52:10;;;;;;;25.40;16.53;;;-10.20;99.90;;;;;;4950983;28;20639;-87
2022/12/19 07:54:36;;;;;;;26.53;17.80;;;-10.30;99.90;;;;;;4963945;28;20189;-87
2022/12/19 07:57:02;;;;;;;28.53;17.67;;;-10.10;99.90;;;;;;4977796;28;20513;-88
2022/12/19 07:59:28;;;;;;;19.70;8.77;;;-10.00;99.90;;;;;;4977419;28;20174;-86
2022/12/19 08:01:53;;;;;;;11.10;10.07;;;-7.90;99.90;;;;;;4944316;28;20191;-86
2022/12/19 08:04:19;;;;;;;17.23;8.47;;;-9.80;99.90;;;;;;4949292;29;20192;-85
2022/12/19 08:06:45;;;;;;;5.70;5.33;;;-9.60;99.90;;;;;;4958009;29;20262;-86
2022/12/19 08:09:12;;;;;;;17.90;9.27;;;-9.50;99.90;;;;;;4924878;29;20642;-86
2022/12/19 08:11:38;;;;;;;11.03;9.90;;;-9.30;99.90;;;;;;4927184;28;20184;-86
2022/12/19 08:14:03;;;;;;;11.43;8.27;;;-9.20;99.90;;;;;;4932042;28;20552;-87
2022/12/19 08:16:29;;;;;;;2.93;2.73;;;-8.90;99.90;;;;;;4935399;28;20548;-87
2022/12/19 08:18:55;;;;;;;4.07;3.77;;;;;;;;;;4950545;28;20649;-87
2022/12/19 08:21:20;;;;;;;3.70;3.50;;;-8.60;99.90;;;;;;4948441;28;20194;-86
2022/12/19 08:23:46;;;;;;;6.70;4.30;;;-8.60;99.90;;;;;;4952330;28;20210;-87
2022/12/19 08:26:14;;;;;;;2.57;2.47;;;-8.50;99.90;;;;;;4950358;28;20189;-86
2022/12/19 08:28:40;;;;;;;5.90;3.37;;;-8.50;99.90;;;;;;4948530;28;20188;-87
2022/12/19 08:31:14;;;;;;;8.60;4.73;;;-8.30;99.90;;;;;;4949432;28;20354;-86
2022/12/19 08:33:41;;;;;;;2.97;2.77;;;-8.30;99.90;;;;;;4948517;28;20188;-86
2022/12/19 08:36:11;;;;;;;9.23;4.17;;;-8.10;99.90;;;;;;4948708;28;20203;-86
2022/12/19 08:38:41;;;;;;;5.27;4.87;;;-8.00;99.90;;;;;;4965631;28;20190;-86
2022/12/19 08:41:07;;;;;;;8.87;5.03;;;-8.00;99.90;;;;;;4965535;28;20267;-89
2022/12/19 08:43:33;;;;;;;6.07;4.23;;;-8.10;99.90;;;;;;4966392;28;20236;-85
2022/12/19 08:45:59;;;;;;;4.07;3.80;;;-8.00;99.90;;;;;;4971304;28;20248;-86
2022/12/19 08:48:25;;;;;;;6.63;5.60;;;-7.80;99.90;;;;;;4967460;28;20184;-86
2022/12/19 08:51:00;;;;;;;4.07;2.97;;;-7.70;99.90;;;;;;4968999;28;20181;-86
2022/12/19 08:53:29;;;;;;;2.73;2.63;;;-6.90;99.90;;;;;;4953253;28;20184;-85
2022/12/19 08:56:00;;;;;;;4.80;4.40;;;-7.70;99.90;;;;;;4965365;28;20199;-85
2022/12/19 08:58:27;;;;;;;3.87;3.67;;;-7.60;99.90;;;;;;4964920;28;20181;-86
2022/12/19 09:00:53;;;;;;;19.63;7.47;;;-7.50;99.90;;;;;;4949189;28;20193;-85
2022/12/19 09:03:19;;;;;;;3.27;2.93;;;-7.50;99.90;;;;;;4965253;28;20263;-85
2022/12/19 09:05:46;;;;;;;4.17;3.87;;;-5.00;99.90;;;;;;4971694;28;20678;-86
2022/12/19 09:08:12;;;;;;;6.20;5.03;;;-7.50;99.90;;;;;;4932798;28;20187;-86
2022/12/19 09:10:38;;;;;;;6.17;4.40;;;-5.20;99.90;;;;;;4947965;28;20729;-86
2022/12/19 09:13:04;;;;;;;5.80;5.27;;;-7.30;99.90;;;;;;4933661;28;20676;-86
2022/12/19 09:15:30;;;;;;;14.90;6.33;;;-7.30;99.90;;;;;;4971424;28;20241;-86
2022/12/19 09:17:55;;;;;;;2.30;2.20;;;-7.10;99.90;;;;;;4950363;28;20671;-86
2022/12/19 09:20:21;;;;;;;2.03;1.93;;;-7.30;99.90;;;;;;4934314;28;20269;-86
2022/12/19 09:22:47;;;;;;;2.43;2.30;;;-7.30;99.90;;;;;;4947842;28;20230;-85
2022/12/19 09:25:13;;;;;;;4.20;2.60;;;-7.30;99.90;;;;;;4952906;28;20192;-85
2022/12/19 09:27:39;;;;;;;5.37;3.27;;;-7.00;99.90;;;;;;4930667;28;20190;-85
2022/12/19 09:30:05;;;;;;;5.07;4.10;;;-7.30;99.90;;;;;;4980792;28;20155;-85
2022/12/19 09:32:31;;;;;;;6.03;3.40;;;-7.10;99.90;;;;;;4998702;28;20183;-86
2022/12/19 09:34:56;;;;;;;10.20;6.27;;;-4.80;99.90;;;;;;4972000;28;20201;-86
2022/12/19 09:37:22;;;;;;;4.13;3.93;;;-6.70;99.90;;;;;;4976491;28;20619;-85
2022/12/19 09:39:48;;;;;;;3.37;3.17;;;-6.60;99.90;;;;;;4940571;28;20257;-85
2022/12/19 09:42:38;;;;;;;16.73;5.80;;;-6.40;99.90;;;;;;4953151;28;20203;-86
2022/12/19 09:45:31;;;;;;;3.90;3.57;;;-6.40;99.90;;;;;;4947579;28;20317;-86
2022/12/19 09:48:00;;;;;;;11.73;4.73;;;-6.10;99.90;;;;;;4949165;28;20237;-86
2022/12/19 09:50:34;;;;;;;8.83;4.63;;;-6.10;99.90;;;;;;4932356;28;20839;-86
2022/12/19 09:53:12;;;;;;;6.97;5.43;;;-3.30;99.90;;;;;;4952800;28;20290;-86
2022/12/19 09:55:41;;;;;;;7.63;4.80;;;-3.30;99.90;;;;;;4968930;28;20187;-86
2022/12/19 09:58:12;;;;;;;2.30;2.20;;;-6.00;99.90;;;;;;4947511;28;20220;-86
2022/12/19 10:00:43;;;;;;;4.80;2.17;;;-6.10;99.90;;;;;;4965551;28;20190;-86
2022/12/19 10:03:39;;;;;;;2.70;2.57;;;-4.50;99.90;;;;;;4962621;28;20220;-86
2022/12/19 10:06:14;;;;;;;5.60;4.67;;;-5.80;99.90;;;;;;4961030;28;20229;-85
2022/12/19 10:08:43;;;;;;;15.40;6.00;;;-3.90;99.90;;;;;;4946544;28;20182;-86
2022/12/19 10:11:15;;;;;;;5.73;3.87;;;-5.40;99.90;;;;;;4948607;28;20627;-86
2022/12/19 10:14:05;;;;;;;3.20;2.90;;;-5.30;99.90;;;;;;4945697;28;20195;-87
2022/12/19 10:17:12;;;;;;;5.17;3.63;;;-5.20;99.90;;;;;;4965448;28;20246;-86
2022/12/19 10:20:02;;;;;;;5.43;4.93;;;-5.20;99.90;;;;;;4948304;28;20179;-86
2022/12/19 10:22:53;;;;;;;3.93;3.50;;;-5.00;99.90;;;;;;4964174;28;20293;-86
2022/12/19 10:25:54;;;;;;;5.73;3.80;;;-4.70;99.90;;;;;;4951833;28;20243;-86
2022/12/19 10:28:32;;;;;;;3.57;3.27;;;-4.50;99.90;;;;;;4959258;28;20186;-86
2022/12/19 10:31:32;;;;;;;3.33;3.13;;;-4.20;99.90;;;;;;4959732;28;20193;-87
2022/12/19 10:34:20;;;;;;;6.80;3.90;;;-4.20;99.90;;;;;;4956441;28;20263;-88
2022/12/19 10:37:00;;;;;;;3.47;2.50;;;-4.50;99.90;;;;;;4989307;28;20192;-87
2022/12/19 10:39:39;;;;;;;3.47;2.10;;;-3.90;99.90;;;;;;4991982;28;20211;-87
2022/12/19 10:42:37;;;;;;;4.10;3.77;;;-4.80;99.90;;;;;;4974143;28;20536;-86
2022/12/19 10:45:13;;;;;;;3.53;3.13;;;-4.60;99.90;;;;;;4973104;28;20261;-87
2022/12/19 10:47:40;;;;;;;12.93;5.33;;;-2.40;99.90;;;;;;4968396;28;20191;-86
2022/12/19 10:50:16;;;;;;;9.87;6.50;;;-2.20;99.90;;;;;;4945629;28;20184;-86
2022/12/19 10:53:09;;;;;;;5.57;4.90;;;-2.90;99.90;;;;;;4946450;28;20222;-87
2022/12/19 10:55:38;;;;;;;6.93;4.57;;;-4.00;99.90;;;;;;4947908;28;20634;-88
2022/12/19 10:58:18;;;;;;;9.90;4.67;;;-4.10;99.90;;;;;;4954201;28;20191;-86
2022/12/19 11:01:09;;;;;;;13.37;5.17;;;-2.10;99.90;;;;;;4955927;28;20185;-86
2022/12/19 11:03:36;;;;;;;2.20;2.07;;;-3.80;99.90;;;;;;4955077;29;20211;-86
2022/12/19 11:06:03;;;;;;;5.33;4.83;;;-0.80;99.90;;;;;;4963023;28;20192;-86
2022/12/19 11:08:32;;;;;;;8.87;4.17;;;-1.30;99.90;;;;;;4953632;29;20179;-86
2022/12/19 11:11:03;;;;;;;5.13;4.17;;;-3.80;99.90;;;;;;4954397;29;20267;-86
2022/12/19 11:13:41;;;;;;;6.93;6.27;;;-3.70;99.90;;;;;;4937107;29;20188;-86
2022/12/19 11:16:07;;;;;;;10.47;5.70;;;-3.00;99.90;;;;;;4954428;29;20241;-87
2022/12/19 11:18:34;;;;;;;6.60;4.87;;;-2.30;99.90;;;;;;4937188;29;20177;-86
2022/12/19 11:21:02;;;;;;;9.37;4.73;;;-0.60;99.90;;;;;;4940318;29;20182;-86
2022/12/19 11:23:30;;;;;;;4.57;3.20;;;-0.70;99.90;;;;;;4961672;29;20289;-86
2022/12/19 11:26:01;;;;;;;21.00;9.87;;;2.30;99.90;;;;;;4961836;29;20176;-86
2022/12/19 11:28:37;;;;;;;10.30;5.20;;;0.50;95.30;;;;;;4961791;28;20180;-86
2022/12/19 11:31:09;;;;;;;32.20;11.73;;;1.40;93.40;;;;;;4944934;29;20180;-85
2022/12/19 11:33:35;;;;;;;23.73;9.37;;;2.80;94.60;;;;;;4944431;28;20632;-86
2022/12/19 11:36:03;;;;;;;23.60;9.40;;;1.80;92.40;;;;;;4944813;29;20237;-85
2022/12/19 11:38:52;;;;;;;20.40;8.40;;;1.10;91.00;;;;;;4961480;28;20182;-86
2022/12/19 11:41:28;;;;;;;30.10;13.20;;;2.00;90.50;;;;;;4933003;29;20199;-86
2022/12/19 11:44:11;;;;;;;51.00;15.10;;;3.00;90.50;;;;;;4944256;29;20329;-86
2022/12/19 11:46:53;;;;;;;38.07;17.07;;;1.20;86.60;;;;;;4944838;29;20189;-86
2022/12/19 11:49:39;;;;;;;19.40;9.90;;;0.90;85.90;;;;;;4971048;28;20177;-86
2022/12/19 11:52:38;;;;;;;14.80;5.27;;;0.30;85.50;;;;;;4963983;28;20194;-85
2022/12/19 11:55:26;;;;;;;24.57;6.27;;;-0.40;88.20;;;;;;4963479;28;20191;-85
2022/12/19 11:57:53;;;;;;;14.00;6.83;;;1.70;92.30;;;;;;4980666;28;20629;-85
2022/12/19 12:00:21;;;;;;;22.10;8.10;;;-0.80;92.80;;;;;;4963439;28;20269;-85
2022/12/19 12:03:17;;;;;;;14.20;6.53;;;-1.40;93.40;;;;;;4980738;28;20202;-86
2022/12/19 12:05:45;;;;;;;12.43;6.47;;;-1.70;94.40;;;;;;4963514;28;20190;-86
2022/12/19 12:08:11;;;;;;;7.70;4.63;;;-2.20;98.30;;;;;;4963589;28;20182;-85
2022/12/19 12:10:45;;;;;;;11.47;5.03;;;-2.70;97.40;;;;;;4963125;28;20186;-85
2022/12/19 12:13:55;;;;;;;7.73;4.60;;;-2.40;99.90;;;;;;4980698;28;20179;-85
2022/12/19 12:16:40;;;;;;;4.27;3.90;;;-3.20;99.90;;;;;;4931036;28;20186;-85
2022/12/19 12:19:23;;;;;;;8.83;5.63;;;-1.90;99.90;;;;;;4963825;28;20202;-87
2022/12/19 12:22:15;;;;;;;8.10;4.60;;;-3.60;99.90;;;;;;4981121;28;20161;-85
2022/12/19 12:25:06;;;;;;;7.20;4.37;;;-3.50;99.90;;;;;;4981244;28;20244;-85
2022/12/19 12:27:39;;;;;;;17.33;7.80;;;-2.10;99.90;;;;;;4981262;28;20205;-86
2022/12/19 12:30:16;;;;;;;10.87;5.57;;;-3.00;99.90;;;;;;4964481;28;20179;-86
2022/12/19 12:32:47;;;;;;;4.80;3.30;;;-2.50;99.90;;;;;;4961890;28;20611;-86
2022/12/19 12:35:29;;;;;;;3.47;3.13;;;-0.90;99.90;;;;;;4978333;28;20205;-86
2022/12/19 12:38:22;;;;;;;6.50;5.80;;;-0.80;99.90;;;;;;4961326;28;20554;-87
2022/12/19 12:41:00;;;;;;;3.80;3.50;;;-2.60;99.90;;;;;;4978878;28;20316;-87
2022/12/19 12:43:45;;;;;;;4.40;3.90;;;-1.00;99.90;;;;;;4963993;28;20246;-87
2022/12/19 12:46:21;;;;;;;8.27;6.47;;;-3.10;99.90;;;;;;4962239;28;20262;-87
2022/12/19 12:49:04;;;;;;;5.60;3.73;;;-2.90;99.90;;;;;;4959860;28;20181;-85
2022/12/19 12:51:33;;;;;;;9.10;4.30;;;-3.50;99.90;;;;;;4978648;28;20611;-86
2022/12/19 12:54:06;;;;;;;15.07;4.60;;;-1.50;99.90;;;;;;4977633;28;20184;-86
2022/12/19 12:56:33;;;;;;;6.03;4.87;;;-4.70;99.90;;;;;;4960897;28;20649;-85
2022/12/19 12:59:17;;;;;;;3.47;3.27;;;-5.00;99.90;;;;;;4945120;28;20225;-83
2022/12/19 13:01:49;;;;;;;3.43;3.23;;;-5.20;99.90;;;;;;4979273;28;20182;-84
2022/12/19 13:04:18;;;;;;;8.83;3.83;;;-5.40;99.90;;;;;;4978525;28;20201;-85
2022/12/19 13:07:09;;;;;;;5.90;4.40;;;-5.30;99.90;;;;;;4961746;28;20183;-85
2022/12/19 13:09:35;;;;;;;8.97;5.80;;;-5.70;99.90;;;;;;4955267;28;20183;-85